Time;durP1;ratioP1;P1;durP2;ratioP2;P2;SDS_P1;SDS_P2;PMS_P1;PMS_P2;Temp;Humidity;BMP_temperature;BMP_pressure;BME280_temperature;BME280_humidity;BME280_pressure;Samples;Min_cycle;Max_cycle;Signal;HPM_P1;HPM_P2
2022/10/22 00:02:03;;;;;;;8.13;5.50;;;12.80;99.90;;;;;;5112841;28;20204;-79
2022/10/22 00:04:29;;;;;;;8.93;5.60;;;12.80;99.90;;;;;;5116704;28;20647;-79
2022/10/22 00:06:56;;;;;;;7.77;6.07;;;12.80;99.90;;;;;;5117177;28;20200;-79
2022/10/22 00:09:23;;;;;;;7.97;6.43;;;12.90;99.90;;;;;;5116699;28;20217;-79
2022/10/22 00:11:50;;;;;;;6.50;5.60;;;12.80;99.90;;;;;;5116768;28;20203;-79
2022/10/22 00:14:16;;;;;;;6.93;5.00;;;12.90;99.90;;;;;;5116565;28;20325;-79
2022/10/22 00:16:45;;;;;;;6.90;4.40;;;12.80;99.90;;;;;;5115774;28;20197;-78
2022/10/22 00:19:12;;;;;;;8.30;4.40;;;12.80;99.90;;;;;;5116197;28;20229;-79
2022/10/22 00:21:39;;;;;;;5.67;4.70;;;12.80;99.90;;;;;;5116706;28;20201;-79
2022/10/22 00:24:06;;;;;;;9.23;4.43;;;12.70;99.90;;;;;;5117077;28;20565;-79
2022/10/22 00:26:32;;;;;;;9.10;4.83;;;12.70;99.90;;;;;;5115766;27;20224;-79
2022/10/22 00:28:59;;;;;;;18.17;5.80;;;12.60;99.90;;;;;;5115297;28;20680;-79
2022/10/22 00:31:26;;;;;;;10.83;5.23;;;12.40;99.90;;;;;;5113844;28;20201;-79
2022/10/22 00:33:54;;;;;;;6.97;5.00;;;12.20;99.90;;;;;;5116487;28;20205;-79
2022/10/22 00:36:21;;;;;;;5.67;4.30;;;12.20;99.90;;;;;;5115104;28;20193;-79
2022/10/22 00:38:47;;;;;;;6.30;4.93;;;12.30;99.90;;;;;;5115946;28;20216;-79
2022/10/22 00:41:14;;;;;;;6.20;4.57;;;12.20;99.90;;;;;;5115692;28;20212;-78
2022/10/22 00:43:57;;;;;;;4.97;4.43;;;12.30;99.90;;;;;;5115960;28;20204;-79
2022/10/22 00:46:24;;;;;;;6.97;4.67;;;12.20;99.90;;;;;;5111759;28;20606;-79
2022/10/22 00:48:51;;;;;;;6.37;3.97;;;12.30;99.90;;;;;;5116433;28;20250;-78
2022/10/22 00:51:21;;;;;;;5.87;4.43;;;12.30;99.90;;;;;;5114555;28;20200;-79
2022/10/22 00:53:52;;;;;;;7.33;5.03;;;12.40;99.90;;;;;;5115071;28;20205;-79
2022/10/22 00:56:20;;;;;;;7.63;5.20;;;12.10;99.90;;;;;;5114568;28;20236;-78
2022/10/22 00:58:50;;;;;;;6.67;4.60;;;12.00;99.90;;;;;;5116357;28;20217;-79
2022/10/22 01:01:20;;;;;;;7.30;4.83;;;12.10;99.90;;;;;;5115369;28;20189;-78
2022/10/22 01:03:47;;;;;;;5.90;5.23;;;12.10;99.90;;;;;;5115812;28;20205;-79
2022/10/22 01:06:22;;;;;;;7.50;4.63;;;12.10;99.90;;;;;;5115737;28;20231;-79
2022/10/22 01:08:57;;;;;;;5.50;4.57;;;12.10;99.90;;;;;;5111455;28;20228;-79
2022/10/22 01:11:32;;;;;;;5.23;4.63;;;12.20;99.90;;;;;;5113862;28;20636;-78
2022/10/22 01:14:08;;;;;;;6.93;4.80;;;12.20;99.90;;;;;;5115254;28;20201;-79
2022/10/22 01:16:42;;;;;;;7.23;5.00;;;12.30;99.90;;;;;;5115389;28;20219;-79
2022/10/22 01:19:29;;;;;;;6.73;4.70;;;12.30;99.90;;;;;;5105632;28;20733;-79
2022/10/22 01:22:03;;;;;;;5.17;4.63;;;12.40;99.90;;;;;;5113310;28;20205;-78
2022/10/22 01:24:45;;;;;;;6.03;4.97;;;12.40;99.90;;;;;;5101503;28;20196;-79
2022/10/22 01:27:32;;;;;;;6.80;5.10;;;12.40;99.90;;;;;;5113497;28;20197;-79
2022/10/22 01:30:04;;;;;;;9.23;4.63;;;12.50;99.90;;;;;;5102764;28;20217;-78
2022/10/22 01:32:36;;;;;;;7.73;4.70;;;12.50;99.90;;;;;;5115112;28;20204;-79
2022/10/22 01:35:07;;;;;;;6.27;4.67;;;12.50;99.90;;;;;;5115228;28;20580;-79
2022/10/22 01:37:38;;;;;;;4.93;3.83;;;12.40;99.90;;;;;;5114734;28;20209;-79
2022/10/22 01:40:07;;;;;;;7.77;4.03;;;12.40;99.90;;;;;;5114826;28;20227;-78
2022/10/22 01:42:34;;;;;;;7.30;4.80;;;12.40;99.90;;;;;;5130253;27;20204;-79
2022/10/22 01:45:02;;;;;;;7.57;4.37;;;12.40;99.90;;;;;;5114597;28;20201;-79
2022/10/22 01:47:40;;;;;;;6.07;4.33;;;12.50;99.90;;;;;;5114570;28;20200;-79
2022/10/22 01:50:20;;;;;;;7.47;4.73;;;12.60;99.90;;;;;;5114925;28;20297;-79
2022/10/22 01:53:17;;;;;;;7.47;4.30;;;12.60;99.90;;;;;;5115087;28;20211;-79
2022/10/22 01:55:54;;;;;;;5.90;3.83;;;12.50;99.90;;;;;;5114359;28;20205;-79
2022/10/22 01:58:32;;;;;;;6.77;4.17;;;12.70;99.90;;;;;;5114746;28;20201;-79
2022/10/22 02:01:05;;;;;;;5.10;4.17;;;12.60;99.90;;;;;;5114696;28;20653;-79
2022/10/22 02:03:39;;;;;;;7.07;4.67;;;12.60;99.90;;;;;;5114620;28;20208;-79
2022/10/22 02:06:11;;;;;;;8.17;4.27;;;12.70;99.90;;;;;;5114773;28;20217;-79
2022/10/22 02:08:39;;;;;;;6.53;4.30;;;12.80;99.90;;;;;;5115075;28;20227;-79
2022/10/22 02:11:07;;;;;;;7.00;4.63;;;12.80;99.90;;;;;;5114166;28;20205;-79
2022/10/22 02:13:40;;;;;;;5.37;4.47;;;12.70;99.90;;;;;;5114108;28;20204;-79
2022/10/22 02:16:11;;;;;;;7.70;4.80;;;12.70;99.90;;;;;;5112254;28;20200;-79
2022/10/22 02:18:41;;;;;;;5.07;4.43;;;12.60;99.90;;;;;;5114582;28;20213;-79
2022/10/22 02:21:09;;;;;;;5.80;4.30;;;12.70;99.90;;;;;;5108410;28;20204;-79
2022/10/22 02:23:36;;;;;;;8.03;4.53;;;12.90;99.90;;;;;;5114265;28;20699;-79
2022/10/22 02:26:09;;;;;;;5.37;4.23;;;13.10;99.90;;;;;;5112516;28;20208;-79
2022/10/22 02:28:43;;;;;;;6.20;4.43;;;13.20;99.90;;;;;;5112329;28;20225;-79
2022/10/22 02:31:16;;;;;;;8.10;4.47;;;13.30;99.90;;;;;;5105962;28;20205;-79
2022/10/22 02:33:46;;;;;;;6.60;4.73;;;13.30;99.90;;;;;;5113369;28;20185;-79
2022/10/22 02:36:14;;;;;;;7.97;4.70;;;13.40;99.90;;;;;;5114154;28;20193;-79
2022/10/22 02:38:42;;;;;;;8.73;4.07;;;13.40;99.90;;;;;;5113984;28;20217;-79
2022/10/22 02:41:09;;;;;;;6.37;4.17;;;13.40;99.90;;;;;;5114143;28;20208;-79
2022/10/22 02:43:41;;;;;;;7.27;4.30;;;13.60;99.90;;;;;;5114160;28;20209;-79
2022/10/22 02:46:08;;;;;;;9.03;4.83;;;13.60;99.90;;;;;;5114389;28;20221;-79
2022/10/22 02:48:37;;;;;;;10.97;4.90;;;13.60;99.90;;;;;;5114414;28;20228;-79
2022/10/22 02:51:04;;;;;;;5.17;4.57;;;13.60;99.90;;;;;;5113640;28;20665;-79
2022/10/22 02:53:30;;;;;;;7.67;5.30;;;13.70;99.90;;;;;;5114487;28;20197;-79
2022/10/22 02:55:59;;;;;;;9.03;4.73;;;13.70;99.90;;;;;;5114011;28;20199;-79
2022/10/22 02:58:26;;;;;;;5.50;4.90;;;13.70;99.90;;;;;;5114011;28;20211;-79
2022/10/22 03:00:52;;;;;;;6.50;5.00;;;13.60;99.90;;;;;;5097632;28;20189;-79
2022/10/22 03:03:19;;;;;;;7.07;5.10;;;13.50;99.90;;;;;;5114270;28;20565;-80
2022/10/22 03:05:47;;;;;;;7.30;5.20;;;13.40;99.90;;;;;;5114070;28;20219;-79
2022/10/22 03:08:14;;;;;;;6.40;5.33;;;13.50;99.90;;;;;;5114053;28;20197;-79
2022/10/22 03:10:41;;;;;;;8.23;5.07;;;13.40;99.90;;;;;;5113842;28;20208;-79
2022/10/22 03:13:08;;;;;;;8.30;5.13;;;13.40;99.90;;;;;;5114596;28;20684;-79
2022/10/22 03:15:34;;;;;;;9.53;5.17;;;13.40;99.90;;;;;;5113801;28;20201;-79
2022/10/22 03:18:01;;;;;;;8.10;5.30;;;13.40;99.90;;;;;;5114258;28;20192;-79
2022/10/22 03:20:28;;;;;;;7.73;5.50;;;13.50;99.90;;;;;;5113906;28;20219;-79
2022/10/22 03:22:57;;;;;;;7.73;5.03;;;13.40;99.90;;;;;;5114287;28;20210;-79
2022/10/22 03:25:26;;;;;;;7.67;5.60;;;13.50;99.90;;;;;;5113515;28;20602;-79
2022/10/22 03:27:55;;;;;;;6.77;5.33;;;13.50;99.90;;;;;;5114796;28;20583;-79
2022/10/22 03:30:22;;;;;;;7.70;4.93;;;13.50;99.90;;;;;;5113371;28;20223;-79
2022/10/22 03:32:49;;;;;;;7.97;5.10;;;13.60;99.90;;;;;;5097933;28;20189;-79
2022/10/22 03:35:15;;;;;;;8.17;5.43;;;13.50;99.90;;;;;;5114526;28;20667;-79
2022/10/22 03:37:42;;;;;;;9.00;6.03;;;13.40;99.90;;;;;;5115013;28;20227;-78
2022/10/22 03:40:12;;;;;;;6.17;5.33;;;13.30;99.90;;;;;;5117745;28;20212;-80
2022/10/22 03:42:40;;;;;;;8.00;4.80;;;13.30;99.90;;;;;;5117973;28;20240;-79
2022/10/22 03:45:11;;;;;;;7.63;5.00;;;13.30;99.90;;;;;;5117896;28;20215;-79
2022/10/22 03:47:37;;;;;;;6.93;5.60;;;13.10;99.90;;;;;;5118119;28;20225;-78
2022/10/22 03:50:06;;;;;;;10.93;5.53;;;13.50;99.90;;;;;;5117624;28;20235;-80
2022/10/22 03:52:36;;;;;;;7.27;5.53;;;13.40;99.90;;;;;;5117879;28;20201;-79
2022/10/22 03:55:04;;;;;;;8.53;6.10;;;13.30;99.90;;;;;;5117519;28;20197;-79
2022/10/22 03:57:32;;;;;;;9.17;5.93;;;13.50;99.90;;;;;;5118220;28;20200;-79
2022/10/22 03:59:59;;;;;;;13.10;5.83;;;13.40;99.90;;;;;;5117569;28;20225;-79
2022/10/22 04:02:26;;;;;;;8.27;5.80;;;13.50;99.90;;;;;;5118289;28;20193;-79
2022/10/22 04:04:53;;;;;;;9.37;5.50;;;13.40;99.90;;;;;;5117750;28;20208;-79
2022/10/22 04:07:19;;;;;;;8.30;5.50;;;13.40;99.90;;;;;;5116572;28;20228;-79
2022/10/22 04:09:46;;;;;;;7.37;5.07;;;13.40;99.90;;;;;;5118590;27;20216;-79
2022/10/22 04:12:13;;;;;;;7.57;5.00;;;13.30;99.90;;;;;;5116676;28;20197;-79
2022/10/22 04:14:41;;;;;;;7.37;5.47;;;13.20;99.90;;;;;;5117569;28;20208;-79
2022/10/22 04:17:08;;;;;;;6.63;4.90;;;13.20;99.90;;;;;;5117397;28;20189;-79
2022/10/22 04:19:35;;;;;;;8.40;5.17;;;13.20;99.90;;;;;;5117125;28;20225;-80
2022/10/22 04:22:01;;;;;;;7.30;4.90;;;13.30;99.90;;;;;;5114434;28;20657;-79
2022/10/22 04:24:30;;;;;;;7.87;4.80;;;13.10;99.90;;;;;;5116326;28;20226;-80
2022/10/22 04:26:57;;;;;;;7.77;4.83;;;13.20;99.90;;;;;;5116008;28;20212;-80
2022/10/22 04:29:24;;;;;;;5.97;4.67;;;13.10;99.90;;;;;;5117084;28;20225;-79
2022/10/22 04:31:53;;;;;;;6.90;4.63;;;13.10;99.90;;;;;;5115070;28;20201;-79
2022/10/22 04:34:19;;;;;;;7.23;5.00;;;12.90;99.90;;;;;;5116993;28;20195;-79
2022/10/22 04:36:46;;;;;;;5.93;4.97;;;12.90;99.90;;;;;;5114277;28;20201;-79
2022/10/22 04:39:14;;;;;;;6.70;4.83;;;13.00;99.90;;;;;;5116577;28;20220;-79
2022/10/22 04:41:41;;;;;;;8.03;5.53;;;13.00;99.90;;;;;;5109775;28;20200;-79
2022/10/22 04:44:08;;;;;;;7.97;5.40;;;13.00;99.90;;;;;;5116409;28;20201;-79
2022/10/22 04:46:36;;;;;;;6.63;4.83;;;13.00;99.90;;;;;;5116803;28;20221;-79
2022/10/22 04:49:04;;;;;;;4.90;4.40;;;12.90;99.90;;;;;;5115968;28;20221;-79
2022/10/22 04:51:32;;;;;;;7.17;5.13;;;12.90;99.90;;;;;;5115654;28;20584;-79
2022/10/22 04:54:01;;;;;;;7.67;4.83;;;12.90;99.90;;;;;;5116356;28;20657;-79
2022/10/22 04:56:30;;;;;;;7.03;4.63;;;13.00;99.90;;;;;;5114696;28;20189;-79
2022/10/22 04:58:59;;;;;;;7.33;5.10;;;12.90;99.90;;;;;;5116197;28;20284;-79
2022/10/22 05:01:27;;;;;;;5.93;5.20;;;13.00;99.90;;;;;;5115967;28;20205;-80
2022/10/22 05:03:57;;;;;;;7.17;5.40;;;12.90;99.90;;;;;;5115739;28;20196;-79
2022/10/22 05:06:26;;;;;;;22.23;14.17;;;12.90;99.90;;;;;;5114817;28;20220;-79
2022/10/22 05:08:55;;;;;;;10.07;6.73;;;12.80;99.90;;;;;;5115887;28;20213;-79
2022/10/22 05:11:24;;;;;;;5.80;4.40;;;12.60;99.90;;;;;;5114447;28;20200;-79
2022/10/22 05:13:51;;;;;;;7.30;5.23;;;12.30;99.90;;;;;;5116119;28;20231;-79
2022/10/22 05:16:18;;;;;;;7.43;4.63;;;12.20;99.90;;;;;;5115708;28;20185;-79
2022/10/22 05:18:45;;;;;;;7.63;5.53;;;12.30;99.90;;;;;;5114748;28;20605;-79
2022/10/22 05:21:14;;;;;;;8.67;4.63;;;12.30;99.90;;;;;;5114864;28;20201;-79
2022/10/22 05:23:43;;;;;;;5.37;4.33;;;12.20;99.90;;;;;;5115287;28;20207;-78
2022/10/22 05:26:11;;;;;;;6.00;4.80;;;12.20;99.90;;;;;;5114181;28;20189;-79
2022/10/22 05:28:39;;;;;;;6.80;4.87;;;12.40;99.90;;;;;;5115642;28;20243;-79
2022/10/22 05:31:07;;;;;;;5.57;4.70;;;12.40;99.90;;;;;;5114903;28;20201;-78
2022/10/22 05:33:35;;;;;;;6.57;4.63;;;12.20;99.90;;;;;;5115348;28;20216;-79
2022/10/22 05:36:03;;;;;;;9.57;4.53;;;12.10;99.90;;;;;;5113985;28;20267;-79
2022/10/22 05:38:31;;;;;;;5.37;4.57;;;12.00;99.90;;;;;;5114857;28;20288;-79
2022/10/22 05:41:04;;;;;;;7.17;4.80;;;12.10;99.90;;;;;;5113569;28;20653;-79
2022/10/22 05:43:31;;;;;;;5.83;4.57;;;12.00;99.90;;;;;;5114177;28;20201;-78
2022/10/22 05:46:02;;;;;;;6.27;4.70;;;12.10;99.90;;;;;;5113296;28;20200;-79
2022/10/22 05:48:29;;;;;;;6.70;5.07;;;12.00;99.90;;;;;;5112802;28;20186;-79
2022/10/22 05:50:56;;;;;;;24.10;5.40;;;12.10;99.90;;;;;;5114779;28;20209;-79
2022/10/22 05:53:23;;;;;;;17.57;4.53;;;12.20;99.90;;;;;;5115021;28;20204;-79
2022/10/22 05:55:50;;;;;;;5.10;4.60;;;12.10;99.90;;;;;;5115452;28;20203;-79
2022/10/22 05:58:18;;;;;;;12.40;8.90;;;12.10;99.90;;;;;;5115093;28;20207;-79
2022/10/22 06:00:45;;;;;;;8.50;5.47;;;12.10;99.90;;;;;;5114817;28;20204;-79
2022/10/22 06:03:12;;;;;;;7.60;5.37;;;12.10;99.90;;;;;;5112808;27;20216;-78
2022/10/22 06:05:44;;;;;;;8.20;6.07;;;12.00;99.90;;;;;;5116566;27;20201;-78
2022/10/22 06:08:16;;;;;;;7.43;5.67;;;12.00;99.90;;;;;;5116239;27;20658;-78
2022/10/22 06:10:46;;;;;;;8.07;5.00;;;12.00;99.90;;;;;;5116160;27;20669;-78
2022/10/22 06:13:15;;;;;;;7.17;5.20;;;12.00;99.90;;;;;;5111240;28;20207;-79
2022/10/22 06:15:46;;;;;;;6.80;5.20;;;11.90;99.90;;;;;;5117427;27;20197;-78
2022/10/22 06:18:14;;;;;;;7.20;5.50;;;12.00;99.90;;;;;;5112808;28;20200;-79
2022/10/22 06:20:42;;;;;;;9.23;5.90;;;12.00;99.90;;;;;;5116432;27;20200;-78
2022/10/22 06:23:09;;;;;;;6.27;5.50;;;12.10;99.90;;;;;;5113256;28;20232;-78
2022/10/22 06:25:36;;;;;;;6.50;5.30;;;12.20;99.90;;;;;;5110309;27;20680;-78
2022/10/22 06:28:03;;;;;;;7.30;5.20;;;12.20;99.90;;;;;;5114149;27;20217;-78
2022/10/22 06:30:30;;;;;;;8.17;5.90;;;12.30;99.90;;;;;;5116570;27;20217;-78
2022/10/22 06:32:58;;;;;;;8.07;5.67;;;12.40;99.90;;;;;;5114852;27;20201;-87
2022/10/22 06:35:28;;;;;;;8.90;5.60;;;12.30;99.90;;;;;;5111086;28;20208;-78
2022/10/22 06:37:56;;;;;;;7.00;5.37;;;12.50;99.90;;;;;;5117502;27;20589;-77
2022/10/22 06:40:25;;;;;;;5.70;5.10;;;12.50;99.90;;;;;;5113154;28;20221;-78
2022/10/22 06:42:52;;;;;;;10.03;5.60;;;12.60;99.90;;;;;;5112920;27;20261;-78
2022/10/22 06:45:20;;;;;;;7.00;5.23;;;12.60;99.90;;;;;;5115646;27;20644;-79
2022/10/22 06:47:47;;;;;;;9.80;5.50;;;12.70;99.90;;;;;;5115741;27;20265;-83
2022/10/22 06:50:16;;;;;;;11.33;5.57;;;12.70;99.90;;;;;;5109211;28;20225;-79
2022/10/22 06:52:45;;;;;;;7.10;4.83;;;12.90;99.90;;;;;;5116047;27;20205;-85
2022/10/22 06:55:15;;;;;;;10.00;5.47;;;13.40;99.90;;;;;;5109403;28;20197;-78
2022/10/22 06:57:46;;;;;;;7.07;5.60;;;13.30;99.90;;;;;;5107270;28;20205;-79
2022/10/22 07:00:17;;;;;;;8.80;5.53;;;13.40;99.90;;;;;;5113897;28;20212;-79
2022/10/22 07:02:52;;;;;;;8.80;5.23;;;13.40;99.90;;;;;;5114807;28;20576;-78
2022/10/22 07:05:21;;;;;;;7.40;4.73;;;13.50;99.90;;;;;;5115577;28;20642;-79
2022/10/22 07:07:48;;;;;;;6.67;4.67;;;13.40;99.90;;;;;;5116550;28;20216;-78
2022/10/22 07:10:15;;;;;;;9.13;4.53;;;13.70;99.90;;;;;;5113430;28;20223;-78
2022/10/22 07:12:41;;;;;;;6.30;4.67;;;13.80;99.90;;;;;;5112108;28;20201;-79
2022/10/22 07:15:09;;;;;;;7.93;5.10;;;13.80;99.90;;;;;;5108588;28;20204;-79
2022/10/22 07:17:38;;;;;;;9.07;4.87;;;13.90;99.90;;;;;;5117563;28;20204;-79
2022/10/22 07:20:09;;;;;;;6.03;4.90;;;14.10;99.90;;;;;;5114243;28;20894;-79
2022/10/22 07:22:40;;;;;;;7.63;5.13;;;14.00;99.90;;;;;;5112279;28;20215;-79
2022/10/22 07:25:12;;;;;;;7.13;4.80;;;14.10;99.90;;;;;;5116964;28;20587;-79
2022/10/22 07:27:41;;;;;;;6.63;5.00;;;14.20;99.90;;;;;;5110467;28;20643;-79
2022/10/22 07:30:12;;;;;;;10.87;5.50;;;14.20;99.90;;;;;;5110946;28;20221;-80
2022/10/22 07:32:41;;;;;;;5.97;5.03;;;14.20;99.90;;;;;;5116027;28;20205;-79
2022/10/22 07:35:10;;;;;;;11.13;5.10;;;14.30;99.90;;;;;;5111586;28;20247;-79
2022/10/22 07:37:41;;;;;;;8.87;4.87;;;14.30;99.90;;;;;;5109876;28;20209;-80
2022/10/22 07:40:12;;;;;;;7.67;5.20;;;14.30;99.90;;;;;;5105408;28;20213;-80
2022/10/22 07:42:38;;;;;;;6.03;4.57;;;14.20;99.90;;;;;;5115263;28;20209;-80
2022/10/22 07:45:06;;;;;;;8.47;4.93;;;14.20;99.90;;;;;;5109548;28;20215;-80
2022/10/22 07:47:33;;;;;;;5.87;4.77;;;14.20;99.90;;;;;;5109341;28;20223;-80
2022/10/22 07:50:03;;;;;;;6.37;4.57;;;14.30;99.90;;;;;;5110339;28;20231;-79
2022/10/22 07:52:30;;;;;;;8.93;5.30;;;14.30;99.90;;;;;;5104964;28;20217;-79
2022/10/22 07:55:03;;;;;;;10.10;5.37;;;14.30;99.90;;;;;;5104029;28;20288;-79
2022/10/22 07:57:30;;;;;;;10.47;6.90;;;14.30;99.90;;;;;;5105964;28;20202;-80
2022/10/22 07:59:58;;;;;;;6.40;5.30;;;14.30;99.90;;;;;;5113195;28;20577;-79
2022/10/22 08:02:27;;;;;;;7.60;4.93;;;14.40;99.90;;;;;;5107825;28;20205;-78
2022/10/22 08:04:55;;;;;;;9.40;5.27;;;14.40;99.90;;;;;;5102906;28;20216;-81
2022/10/22 08:07:22;;;;;;;6.30;5.17;;;14.50;99.90;;;;;;5110097;28;20252;-81
2022/10/22 08:09:52;;;;;;;6.80;4.83;;;14.40;99.90;;;;;;5106930;28;20217;-80
2022/10/22 08:12:23;;;;;;;7.53;5.27;;;14.50;99.90;;;;;;5108356;28;20201;-80
2022/10/22 08:14:53;;;;;;;6.70;5.23;;;14.50;99.90;;;;;;5108687;28;20213;-80
2022/10/22 08:17:22;;;;;;;7.90;5.33;;;14.50;99.90;;;;;;5111135;28;20201;-80
2022/10/22 08:19:52;;;;;;;7.20;4.50;;;14.60;99.90;;;;;;5109339;28;20217;-80
2022/10/22 08:22:22;;;;;;;7.23;4.67;;;14.70;99.90;;;;;;5105645;28;20205;-80
2022/10/22 08:24:52;;;;;;;6.17;4.57;;;14.90;99.90;;;;;;5105972;28;20236;-80
2022/10/22 08:27:22;;;;;;;8.13;4.90;;;15.20;99.90;;;;;;5110444;28;20644;-79
2022/10/22 08:29:51;;;;;;;6.57;4.50;;;15.20;99.90;;;;;;5111972;27;20220;-79
2022/10/22 08:32:17;;;;;;;7.20;4.73;;;15.30;99.90;;;;;;5115090;28;20205;-79
2022/10/22 08:34:51;;;;;;;9.03;4.40;;;15.40;99.90;;;;;;5109608;28;20207;-80
2022/10/22 08:37:20;;;;;;;5.93;4.63;;;15.60;99.90;;;;;;5112873;28;20205;-79
2022/10/22 08:39:48;;;;;;;7.95;4.75;;;15.50;99.90;;;;;;5112934;28;20673;-78
2022/10/22 08:42:40;;;;;;;6.88;4.43;;;15.60;99.90;;;;;;5114565;27;20322;-79
2022/10/22 08:45:17;;;;;;;7.45;4.50;;;15.60;99.90;;;;;;5107452;27;20209;-79
2022/10/22 08:48:04;;;;;;;6.13;4.47;;;16.00;99.90;;;;;;5116827;27;20223;-80
2022/10/22 08:50:35;;;;;;;9.57;4.53;;;15.90;99.90;;;;;;5109331;28;20224;-80
2022/10/22 08:53:05;;;;;;;6.05;3.80;;;16.10;99.90;;;;;;5114382;28;20202;-80
2022/10/22 08:55:34;;;;;;;8.50;4.38;;;16.20;99.90;;;;;;5114927;28;20566;-80
2022/10/22 08:58:14;;;;;;;9.90;4.43;;;16.20;99.90;;;;;;5117652;27;20197;-80
2022/10/22 09:00:46;;;;;;;4.63;3.90;;;16.30;99.90;;;;;;5119422;27;20209;-81
2022/10/22 09:03:32;;;;;;;7.28;3.95;;;16.30;99.90;;;;;;5116433;27;20671;-81
2022/10/22 09:06:08;;;;;;;5.22;4.50;;;16.20;99.90;;;;;;5114528;28;21385;-81
2022/10/22 09:08:39;;;;;;;5.78;3.88;;;16.30;99.90;;;;;;5118729;27;20696;-82
2022/10/22 09:11:22;;;;;;;5.45;3.90;;;16.50;99.90;;;;;;5114901;28;20204;-82
2022/10/22 09:13:52;;;;;;;7.18;3.90;;;16.60;99.90;;;;;;5118207;28;20638;-81
2022/10/22 09:16:28;;;;;;;8.88;3.75;;;16.60;99.90;;;;;;5118342;28;20201;-81
2022/10/22 09:19:09;;;;;;;5.47;3.83;;;16.70;99.90;;;;;;5114147;28;20672;-82
2022/10/22 09:21:43;;;;;;;7.78;3.80;;;16.70;99.90;;;;;;5112422;28;20210;-81
2022/10/22 09:24:13;;;;;;;6.38;3.90;;;16.80;99.90;;;;;;5118181;27;20193;-82
2022/10/22 09:26:41;;;;;;;4.35;3.67;;;16.90;99.90;;;;;;5116201;27;20213;-82
2022/10/22 09:29:21;;;;;;;6.40;3.80;;;16.80;99.90;;;;;;5114258;27;20217;-82
2022/10/22 09:31:50;;;;;;;5.07;3.67;;;17.00;99.90;;;;;;5115967;28;20219;-83
2022/10/22 09:34:22;;;;;;;5.13;4.20;;;17.00;99.90;;;;;;5119298;27;20240;-82
2022/10/22 09:36:58;;;;;;;6.50;4.50;;;17.10;99.90;;;;;;5117791;27;20213;-82
2022/10/22 09:39:31;;;;;;;6.07;3.45;;;17.20;99.90;;;;;;5114929;27;20273;-81
2022/10/22 09:41:58;;;;;;;5.72;3.35;;;17.40;99.90;;;;;;5113726;28;20197;-81
2022/10/22 09:44:27;;;;;;;5.00;3.45;;;17.40;99.90;;;;;;5114411;27;20220;-82
2022/10/22 09:46:56;;;;;;;6.13;3.45;;;17.40;99.90;;;;;;5117072;27;20209;-81
2022/10/22 09:49:24;;;;;;;3.80;3.22;;;17.70;99.90;;;;;;5112773;27;20221;-82
2022/10/22 09:51:58;;;;;;;3.80;3.35;;;18.00;99.90;;;;;;5117584;27;20193;-82
2022/10/22 09:54:41;;;;;;;4.93;3.42;;;18.30;99.90;;;;;;5108512;28;20200;-82
2022/10/22 09:57:16;;;;;;;4.80;3.58;;;18.50;99.90;;;;;;5111940;28;20229;-80
2022/10/22 09:59:48;;;;;;;8.77;3.58;;;18.80;99.90;;;;;;5116954;27;20928;-80
2022/10/22 10:02:22;;;;;;;4.30;3.00;;;19.00;99.90;;;;;;5114085;27;20212;-80
2022/10/22 10:04:55;;;;;;;5.10;3.22;;;19.20;99.90;;;;;;5111864;27;20212;-80
2022/10/22 10:07:23;;;;;;;8.27;3.40;;;19.20;99.90;;;;;;5117333;27;20197;-80
2022/10/22 10:09:56;;;;;;;6.25;3.10;;;19.00;99.90;;;;;;5114800;28;20254;-80
2022/10/22 10:12:34;;;;;;;4.38;2.92;;;19.20;99.90;;;;;;5110006;28;20654;-80
2022/10/22 10:15:15;;;;;;;4.80;3.20;;;19.10;99.90;;;;;;5115812;28;20215;-79
2022/10/22 10:17:52;;;;;;;2.97;2.70;;;19.20;99.90;;;;;;5117769;27;20563;-79
2022/10/22 10:20:31;;;;;;;7.22;3.40;;;19.50;99.90;;;;;;5116247;28;20287;-80
2022/10/22 10:23:06;;;;;;;4.97;2.58;;;19.50;99.90;;;;;;5116861;27;20555;-80
2022/10/22 10:25:51;;;;;;;3.88;2.60;;;19.30;99.90;;;;;;5115287;27;20204;-80
2022/10/22 10:28:31;;;;;;;3.92;2.85;;;19.10;99.90;;;;;;5117756;27;20296;-79
2022/10/22 10:31:08;;;;;;;5.03;3.40;;;19.50;99.90;;;;;;5113766;28;20197;-79
2022/10/22 10:33:44;;;;;;;5.00;2.63;;;19.70;99.90;;;;;;5120074;27;20267;-79
2022/10/22 10:36:20;;;;;;;5.25;3.08;;;19.90;99.90;;;;;;5112983;28;20193;-80
2022/10/22 10:38:58;;;;;;;6.00;3.22;;;19.90;99.90;;;;;;5117331;28;20205;-79
2022/10/22 10:41:38;;;;;;;3.60;2.75;;;19.70;99.90;;;;;;5112724;28;20213;-79
2022/10/22 10:44:32;;;;;;;5.75;2.90;;;19.70;99.90;;;;;;5109108;28;20224;-78
2022/10/22 10:47:14;;;;;;;2.78;2.58;;;19.80;99.90;;;;;;5118290;27;20193;-79
2022/10/22 10:49:45;;;;;;;5.38;2.53;;;19.70;99.90;;;;;;5115169;28;20229;-79
2022/10/22 10:52:22;;;;;;;7.05;3.38;;;19.50;99.90;;;;;;5115221;28;20228;-78
2022/10/22 10:55:03;;;;;;;4.97;3.38;;;19.60;99.90;;;;;;5112740;28;20201;-77
2022/10/22 10:58:00;;;;;;;6.60;2.92;;;19.80;99.90;;;;;;5108608;28;20197;-78
2022/10/22 11:00:39;;;;;;;4.60;3.38;;;19.70;99.90;;;;;;5110447;28;20232;-79
2022/10/22 11:03:47;;;;;;;6.30;3.28;;;19.40;99.90;;;;;;5113142;28;20200;-78
2022/10/22 11:06:20;;;;;;;7.85;3.60;;;19.30;99.90;;;;;;5107458;28;20198;-78
2022/10/22 11:09:02;;;;;;;5.35;3.38;;;19.20;99.90;;;;;;5107339;28;20231;-78
2022/10/22 11:11:35;;;;;;;6.68;3.50;;;19.30;99.90;;;;;;5114324;28;20287;-83
2022/10/22 11:14:17;;;;;;;6.35;3.85;;;19.50;99.90;;;;;;5116993;28;20253;-83
2022/10/22 11:16:49;;;;;;;6.93;3.70;;;19.80;99.90;;;;;;5117844;28;20209;-82
2022/10/22 11:19:27;;;;;;;9.60;3.53;;;20.30;99.90;;;;;;5118578;28;20216;-82
2022/10/22 11:22:04;;;;;;;6.85;3.47;;;20.80;99.90;;;;;;5119496;28;20208;-82
2022/10/22 11:24:38;;;;;;;3.80;3.40;;;21.20;99.90;;;;;;5132486;28;20850;-83
2022/10/22 11:27:11;;;;;;;7.63;3.40;;;21.20;99.90;;;;;;5116882;28;20201;-82
2022/10/22 11:29:45;;;;;;;5.75;2.75;;;21.50;99.90;;;;;;5118494;28;20251;-82
2022/10/22 11:32:17;;;;;;;4.47;2.67;;;21.20;99.90;;;;;;5118797;28;20200;-82
2022/10/22 11:34:53;;;;;;;3.85;2.88;;;21.40;99.90;;;;;;5117816;28;20283;-83
2022/10/22 11:37:25;;;;;;;4.60;2.75;;;21.60;99.90;;;;;;5114283;28;20199;-82
2022/10/22 11:39:54;;;;;;;8.38;3.20;;;21.80;99.90;;;;;;5113684;28;20248;-82
2022/10/22 11:42:34;;;;;;;4.57;2.95;;;21.70;99.90;;;;;;5116364;28;20208;-83
2022/10/22 11:45:07;;;;;;;4.72;3.15;;;21.80;99.90;;;;;;5116777;28;20192;-83
2022/10/22 11:47:41;;;;;;;4.85;3.10;;;21.40;99.90;;;;;;5118506;28;20264;-82
2022/10/22 11:50:21;;;;;;;5.22;2.80;;;21.50;99.90;;;;;;5125799;28;20231;-82
2022/10/22 11:53:00;;;;;;;5.65;3.10;;;21.40;99.90;;;;;;5114434;28;20212;-82
2022/10/22 11:55:34;;;;;;;4.95;2.85;;;21.30;99.90;;;;;;5115527;28;20220;-83
2022/10/22 11:58:04;;;;;;;6.35;2.85;;;21.20;99.90;;;;;;5118817;28;20539;-83
2022/10/22 12:00:39;;;;;;;3.30;2.92;;;21.00;99.90;;;;;;5121703;27;20225;-83
2022/10/22 12:03:20;;;;;;;5.32;3.08;;;20.90;99.90;;;;;;5122925;27;20681;-82
2022/10/22 12:06:18;;;;;;;6.95;3.67;;;20.70;99.90;;;;;;5122555;27;20200;-83
2022/10/22 12:08:51;;;;;;;5.88;3.58;;;20.70;99.90;;;;;;5121448;28;20232;-82
2022/10/22 12:11:22;;;;;;;9.43;3.20;;;20.30;99.90;;;;;;5122723;28;20185;-83
2022/10/22 12:14:03;;;;;;;7.13;3.85;;;20.20;99.90;;;;;;5108666;28;20213;-82
2022/10/22 12:16:38;;;;;;;6.00;3.72;;;20.70;99.90;;;;;;5107206;27;20209;-82
2022/10/22 12:19:13;;;;;;;8.15;3.55;;;21.10;99.90;;;;;;5128824;27;20228;-82
2022/10/22 12:21:45;;;;;;;9.85;4.30;;;20.80;99.90;;;;;;5120648;28;20206;-82
2022/10/22 12:24:15;;;;;;;8.90;3.80;;;20.40;99.90;;;;;;5123167;27;20595;-82
2022/10/22 12:26:42;;;;;;;5.70;3.35;;;20.20;99.90;;;;;;5109834;27;20201;-83
2022/10/22 12:29:12;;;;;;;5.53;3.20;;;20.20;99.90;;;;;;5122368;27;20669;-83
2022/10/22 12:31:41;;;;;;;4.60;2.78;;;22.20;99.90;;;;;;5123219;27;20581;-83
2022/10/22 12:34:14;;;;;;;7.82;3.05;;;22.70;99.90;;;;;;5125150;27;20633;-83
2022/10/22 12:36:46;;;;;;;3.85;2.33;;;23.80;99.90;;;;;;5119677;28;20260;-82
2022/10/22 12:39:15;;;;;;;5.95;2.53;;;22.30;99.90;;;;;;5120294;28;20205;-82
2022/10/22 12:41:44;;;;;;;3.03;2.45;;;21.30;99.90;;;;;;5120056;28;20672;-82
2022/10/22 12:44:14;;;;;;;7.60;3.05;;;20.70;99.90;;;;;;5120163;28;20194;-82
2022/10/22 12:46:42;;;;;;;6.53;2.42;;;20.50;99.90;;;;;;5103817;28;20263;-82
2022/10/22 12:49:16;;;;;;;2.33;2.10;;;20.50;99.90;;;;;;5115786;28;20232;-82
2022/10/22 12:51:46;;;;;;;8.23;2.05;;;21.20;99.90;;;;;;5123143;27;20200;-82
2022/10/22 12:54:33;;;;;;;6.03;2.28;;;22.50;99.90;;;;;;5115357;27;20197;-82
2022/10/22 12:57:01;;;;;;;6.15;2.33;;;23.40;36.50;;;;;;5122760;27;20203;-82
2022/10/22 12:59:29;;;;;;;8.55;2.55;;;23.90;1.00;;;;;;5128022;27;20250;-82
2022/10/22 13:01:58;;;;;;;4.32;2.17;;;23.80;1.00;;;;;;5122053;27;20204;-82
2022/10/22 13:04:36;;;;;;;4.43;1.83;;;24.20;99.90;;;;;;5118398;28;20197;-82
2022/10/22 13:07:18;;;;;;;12.68;1.80;;;23.40;1.00;;;;;;5121217;28;20564;-82